sensor_id;sensor_type;location;lat;lon;timestamp;P1;durP1;ratioP1;P2;durP2;ratioP2
7128;SDS011;3606;52.930;8.644;2023-03-26T00:01:12;12.10;;;2.97;;
7128;SDS011;3606;52.930;8.644;2023-03-26T00:03:40;8.53;;;2.97;;
7128;SDS011;3606;52.930;8.644;2023-03-26T00:06:12;9.67;;;3.03;;
7128;SDS011;3606;52.930;8.644;2023-03-26T00:08:40;7.53;;;2.53;;
7128;SDS011;3606;52.930;8.644;2023-03-26T00:11:08;8.90;;;2.97;;
7128;SDS011;3606;52.930;8.644;2023-03-26T00:13:35;6.37;;;2.50;;
7128;SDS011;3606;52.930;8.644;2023-03-26T00:16:01;7.57;;;2.37;;
7128;SDS011;3606;52.930;8.644;2023-03-26T00:18:27;8.13;;;2.83;;
7128;SDS011;3606;52.930;8.644;2023-03-26T00:20:59;12.33;;;2.63;;
7128;SDS011;3606;52.930;8.644;2023-03-26T00:23:28;13.17;;;3.17;;
7128;SDS011;3606;52.930;8.644;2023-03-26T00:25:54;7.27;;;3.07;;
7128;SDS011;3606;52.930;8.644;2023-03-26T00:28:21;7.60;;;2.77;;
7128;SDS011;3606;52.930;8.644;2023-03-26T00:30:47;10.43;;;2.97;;
7128;SDS011;3606;52.930;8.644;2023-03-26T00:33:14;7.17;;;3.40;;
7128;SDS011;3606;52.930;8.644;2023-03-26T00:35:43;11.03;;;3.00;;
7128;SDS011;3606;52.930;8.644;2023-03-26T00:38:12;10.67;;;3.00;;
7128;SDS011;3606;52.930;8.644;2023-03-26T00:40:38;9.43;;;2.80;;
7128;SDS011;3606;52.930;8.644;2023-03-26T00:43:07;14.07;;;4.10;;
7128;SDS011;3606;52.930;8.644;2023-03-26T00:45:42;7.17;;;3.63;;
7128;SDS011;3606;52.930;8.644;2023-03-26T00:48:09;13.23;;;3.70;;
7128;SDS011;3606;52.930;8.644;2023-03-26T00:50:35;10.70;;;3.80;;
7128;SDS011;3606;52.930;8.644;2023-03-26T00:53:01;7.70;;;3.13;;
7128;SDS011;3606;52.930;8.644;2023-03-26T00:55:27;9.73;;;3.20;;
7128;SDS011;3606;52.930;8.644;2023-03-26T00:57:52;7.80;;;3.20;;
7128;SDS011;3606;52.930;8.644;2023-03-26T01:00:19;5.63;;;3.00;;
7128;SDS011;3606;52.930;8.644;2023-03-26T01:02:53;7.77;;;3.13;;
7128;SDS011;3606;52.930;8.644;2023-03-26T01:08:03;12.83;;;3.30;;
7128;SDS011;3606;52.930;8.644;2023-03-26T01:10:43;8.03;;;3.27;;
7128;SDS011;3606;52.930;8.644;2023-03-26T01:13:15;9.90;;;3.53;;
7128;SDS011;3606;52.930;8.644;2023-03-26T01:15:45;12.13;;;3.90;;
7128;SDS011;3606;52.930;8.644;2023-03-26T01:18:18;11.67;;;3.60;;
7128;SDS011;3606;52.930;8.644;2023-03-26T01:20:50;6.50;;;3.10;;
7128;SDS011;3606;52.930;8.644;2023-03-26T01:23:23;12.13;;;3.30;;
7128;SDS011;3606;52.930;8.644;2023-03-26T01:26:01;8.07;;;2.77;;
7128;SDS011;3606;52.930;8.644;2023-03-26T01:28:42;8.37;;;2.83;;
7128;SDS011;3606;52.930;8.644;2023-03-26T01:31:13;4.63;;;2.57;;
7128;SDS011;3606;52.930;8.644;2023-03-26T01:33:57;13.57;;;2.97;;
7128;SDS011;3606;52.930;8.644;2023-03-26T01:36:38;9.00;;;2.87;;
7128;SDS011;3606;52.930;8.644;2023-03-26T01:39:15;5.77;;;2.60;;
7128;SDS011;3606;52.930;8.644;2023-03-26T01:42:03;6.90;;;2.67;;
7128;SDS011;3606;52.930;8.644;2023-03-26T01:44:37;7.43;;;2.83;;
7128;SDS011;3606;52.930;8.644;2023-03-26T01:47:33;6.40;;;2.70;;
7128;SDS011;3606;52.930;8.644;2023-03-26T01:50:00;9.20;;;3.10;;
7128;SDS011;3606;52.930;8.644;2023-03-26T01:52:26;5.60;;;2.40;;
7128;SDS011;3606;52.930;8.644;2023-03-26T01:54:54;7.33;;;3.10;;
7128;SDS011;3606;52.930;8.644;2023-03-26T02:05:38;9.00;;;3.07;;
7128;SDS011;3606;52.930;8.644;2023-03-26T02:08:20;6.07;;;2.63;;
7128;SDS011;3606;52.930;8.644;2023-03-26T02:11:01;6.20;;;2.63;;
7128;SDS011;3606;52.930;8.644;2023-03-26T02:13:29;7.73;;;2.70;;
7128;SDS011;3606;52.930;8.644;2023-03-26T02:16:00;7.00;;;2.87;;
7128;SDS011;3606;52.930;8.644;2023-03-26T02:18:27;6.63;;;2.77;;
7128;SDS011;3606;52.930;8.644;2023-03-26T02:21:07;8.10;;;3.20;;
7128;SDS011;3606;52.930;8.644;2023-03-26T02:23:36;9.57;;;3.33;;
7128;SDS011;3606;52.930;8.644;2023-03-26T02:26:05;5.57;;;2.80;;
7128;SDS011;3606;52.930;8.644;2023-03-26T02:28:31;10.50;;;3.60;;
7128;SDS011;3606;52.930;8.644;2023-03-26T02:30:57;11.13;;;3.30;;
7128;SDS011;3606;52.930;8.644;2023-03-26T02:33:25;11.47;;;3.27;;
7128;SDS011;3606;52.930;8.644;2023-03-26T02:35:52;12.27;;;3.20;;
7128;SDS011;3606;52.930;8.644;2023-03-26T02:38:17;7.63;;;3.00;;
7128;SDS011;3606;52.930;8.644;2023-03-26T02:40:43;12.23;;;4.00;;
7128;SDS011;3606;52.930;8.644;2023-03-26T02:43:09;8.57;;;3.50;;
7128;SDS011;3606;52.930;8.644;2023-03-26T02:45:34;7.70;;;3.10;;
7128;SDS011;3606;52.930;8.644;2023-03-26T02:48:00;7.27;;;3.40;;
7128;SDS011;3606;52.930;8.644;2023-03-26T02:50:25;10.10;;;3.20;;
7128;SDS011;3606;52.930;8.644;2023-03-26T02:52:51;12.60;;;3.53;;
7128;SDS011;3606;52.930;8.644;2023-03-26T02:55:17;8.23;;;3.47;;
7128;SDS011;3606;52.930;8.644;2023-03-26T02:57:43;13.80;;;3.30;;
7128;SDS011;3606;52.930;8.644;2023-03-26T03:00:08;11.80;;;3.57;;
7128;SDS011;3606;52.930;8.644;2023-03-26T03:02:40;9.67;;;3.23;;
7128;SDS011;3606;52.930;8.644;2023-03-26T03:05:08;6.27;;;2.80;;
7128;SDS011;3606;52.930;8.644;2023-03-26T03:07:34;12.87;;;3.13;;
7128;SDS011;3606;52.930;8.644;2023-03-26T03:10:02;6.77;;;3.37;;
7128;SDS011;3606;52.930;8.644;2023-03-26T03:12:28;9.63;;;3.27;;
7128;SDS011;3606;52.930;8.644;2023-03-26T03:14:54;8.80;;;3.00;;
7128;SDS011;3606;52.930;8.644;2023-03-26T03:17:19;11.07;;;3.00;;
7128;SDS011;3606;52.930;8.644;2023-03-26T03:19:45;9.27;;;2.97;;
7128;SDS011;3606;52.930;8.644;2023-03-26T03:22:11;5.40;;;2.70;;
7128;SDS011;3606;52.930;8.644;2023-03-26T03:24:36;10.93;;;3.00;;
7128;SDS011;3606;52.930;8.644;2023-03-26T03:27:03;10.03;;;3.43;;
7128;SDS011;3606;52.930;8.644;2023-03-26T03:29:28;13.37;;;3.30;;
7128;SDS011;3606;52.930;8.644;2023-03-26T03:31:54;6.27;;;3.07;;
7128;SDS011;3606;52.930;8.644;2023-03-26T03:34:20;12.77;;;3.23;;
7128;SDS011;3606;52.930;8.644;2023-03-26T03:36:46;7.87;;;3.10;;
7128;SDS011;3606;52.930;8.644;2023-03-26T03:39:12;5.80;;;2.87;;
7128;SDS011;3606;52.930;8.644;2023-03-26T03:41:38;6.70;;;3.37;;
7128;SDS011;3606;52.930;8.644;2023-03-26T03:44:04;9.53;;;3.50;;
7128;SDS011;3606;52.930;8.644;2023-03-26T03:46:30;13.43;;;3.70;;
7128;SDS011;3606;52.930;8.644;2023-03-26T03:48:56;7.20;;;3.43;;
7128;SDS011;3606;52.930;8.644;2023-03-26T03:51:21;10.70;;;3.27;;
7128;SDS011;3606;52.930;8.644;2023-03-26T03:53:47;9.97;;;3.07;;
7128;SDS011;3606;52.930;8.644;2023-03-26T03:56:13;9.40;;;3.30;;
7128;SDS011;3606;52.930;8.644;2023-03-26T03:58:42;9.87;;;3.20;;
7128;SDS011;3606;52.930;8.644;2023-03-26T04:01:10;7.23;;;2.43;;
7128;SDS011;3606;52.930;8.644;2023-03-26T04:03:37;15.83;;;3.13;;
7128;SDS011;3606;52.930;8.644;2023-03-26T04:06:03;6.53;;;2.67;;
7128;SDS011;3606;52.930;8.644;2023-03-26T04:08:35;13.77;;;3.00;;
7128;SDS011;3606;52.930;8.644;2023-03-26T04:11:00;10.67;;;3.70;;
7128;SDS011;3606;52.930;8.644;2023-03-26T04:13:26;7.47;;;3.20;;
7128;SDS011;3606;52.930;8.644;2023-03-26T04:15:52;7.73;;;3.70;;
7128;SDS011;3606;52.930;8.644;2023-03-26T04:18:18;8.73;;;3.43;;
7128;SDS011;3606;52.930;8.644;2023-03-26T04:20:44;15.13;;;3.47;;
7128;SDS011;3606;52.930;8.644;2023-03-26T04:23:13;11.30;;;3.43;;
7128;SDS011;3606;52.930;8.644;2023-03-26T04:25:44;9.07;;;3.10;;
7128;SDS011;3606;52.930;8.644;2023-03-26T04:28:21;12.57;;;3.60;;
7128;SDS011;3606;52.930;8.644;2023-03-26T04:30:50;12.43;;;3.40;;
7128;SDS011;3606;52.930;8.644;2023-03-26T04:33:18;14.70;;;3.43;;
7128;SDS011;3606;52.930;8.644;2023-03-26T04:35:45;19.07;;;3.90;;
7128;SDS011;3606;52.930;8.644;2023-03-26T04:38:12;12.40;;;3.23;;
7128;SDS011;3606;52.930;8.644;2023-03-26T04:40:40;13.77;;;3.80;;
7128;SDS011;3606;52.930;8.644;2023-03-26T04:43:10;7.50;;;2.77;;
7128;SDS011;3606;52.930;8.644;2023-03-26T04:45:37;10.00;;;2.83;;
7128;SDS011;3606;52.930;8.644;2023-03-26T04:48:03;17.13;;;3.43;;
7128;SDS011;3606;52.930;8.644;2023-03-26T04:50:31;10.13;;;3.33;;
7128;SDS011;3606;52.930;8.644;2023-03-26T04:52:57;11.63;;;3.57;;
7128;SDS011;3606;52.930;8.644;2023-03-26T04:55:24;9.87;;;3.13;;
7128;SDS011;3606;52.930;8.644;2023-03-26T04:57:55;13.43;;;3.57;;
7128;SDS011;3606;52.930;8.644;2023-03-26T05:00:24;12.13;;;3.13;;
7128;SDS011;3606;52.930;8.644;2023-03-26T05:02:50;8.43;;;2.80;;
7128;SDS011;3606;52.930;8.644;2023-03-26T05:05:18;9.60;;;3.17;;
7128;SDS011;3606;52.930;8.644;2023-03-26T05:07:43;10.93;;;3.27;;
7128;SDS011;3606;52.930;8.644;2023-03-26T05:10:11;13.27;;;3.70;;
7128;SDS011;3606;52.930;8.644;2023-03-26T05:12:38;14.87;;;3.43;;
7128;SDS011;3606;52.930;8.644;2023-03-26T05:15:03;14.00;;;3.07;;
7128;SDS011;3606;52.930;8.644;2023-03-26T05:17:30;5.27;;;2.60;;
7128;SDS011;3606;52.930;8.644;2023-03-26T05:19:58;11.50;;;3.80;;
7128;SDS011;3606;52.930;8.644;2023-03-26T05:22:24;17.00;;;3.57;;
7128;SDS011;3606;52.930;8.644;2023-03-26T05:24:50;12.07;;;2.97;;
7128;SDS011;3606;52.930;8.644;2023-03-26T05:27:16;12.27;;;3.07;;
7128;SDS011;3606;52.930;8.644;2023-03-26T05:29:44;10.17;;;2.50;;
7128;SDS011;3606;52.930;8.644;2023-03-26T05:32:10;16.33;;;3.57;;
7128;SDS011;3606;52.930;8.644;2023-03-26T05:34:37;10.97;;;2.70;;
7128;SDS011;3606;52.930;8.644;2023-03-26T05:37:04;13.30;;;3.50;;
7128;SDS011;3606;52.930;8.644;2023-03-26T05:39:31;8.83;;;3.17;;
7128;SDS011;3606;52.930;8.644;2023-03-26T05:41:57;12.83;;;3.40;;
7128;SDS011;3606;52.930;8.644;2023-03-26T05:44:22;18.40;;;4.00;;
7128;SDS011;3606;52.930;8.644;2023-03-26T05:46:48;22.20;;;3.73;;
7128;SDS011;3606;52.930;8.644;2023-03-26T05:49:13;8.73;;;2.83;;
7128;SDS011;3606;52.930;8.644;2023-03-26T05:51:39;13.70;;;3.03;;
7128;SDS011;3606;52.930;8.644;2023-03-26T05:54:05;11.50;;;3.43;;
7128;SDS011;3606;52.930;8.644;2023-03-26T05:56:30;9.60;;;2.73;;
7128;SDS011;3606;52.930;8.644;2023-03-26T05:58:56;16.40;;;4.07;;
7128;SDS011;3606;52.930;8.644;2023-03-26T06:01:22;8.27;;;2.77;;
7128;SDS011;3606;52.930;8.644;2023-03-26T06:03:49;16.73;;;3.13;;
7128;SDS011;3606;52.930;8.644;2023-03-26T06:06:16;11.33;;;3.30;;
7128;SDS011;3606;52.930;8.644;2023-03-26T06:08:47;8.33;;;3.20;;
7128;SDS011;3606;52.930;8.644;2023-03-26T06:11:15;10.67;;;3.37;;
7128;SDS011;3606;52.930;8.644;2023-03-26T06:13:42;19.33;;;3.27;;
7128;SDS011;3606;52.930;8.644;2023-03-26T06:16:08;12.87;;;3.37;;
7128;SDS011;3606;52.930;8.644;2023-03-26T06:18:35;12.53;;;3.20;;
7128;SDS011;3606;52.930;8.644;2023-03-26T06:21:02;7.47;;;2.60;;
7128;SDS011;3606;52.930;8.644;2023-03-26T06:23:28;12.77;;;3.13;;
7128;SDS011;3606;52.930;8.644;2023-03-26T06:25:54;7.30;;;2.53;;
7128;SDS011;3606;52.930;8.644;2023-03-26T06:28:20;18.13;;;3.40;;
7128;SDS011;3606;52.930;8.644;2023-03-26T06:30:45;13.13;;;2.97;;
7128;SDS011;3606;52.930;8.644;2023-03-26T06:33:11;12.30;;;3.10;;
7128;SDS011;3606;52.930;8.644;2023-03-26T06:35:36;12.47;;;3.13;;
7128;SDS011;3606;52.930;8.644;2023-03-26T06:38:02;10.80;;;3.23;;
7128;SDS011;3606;52.930;8.644;2023-03-26T06:40:28;10.70;;;3.10;;
7128;SDS011;3606;52.930;8.644;2023-03-26T06:42:53;15.47;;;3.50;;
7128;SDS011;3606;52.930;8.644;2023-03-26T06:45:21;10.60;;;2.90;;
7128;SDS011;3606;52.930;8.644;2023-03-26T06:47:46;8.57;;;3.00;;
7128;SDS011;3606;52.930;8.644;2023-03-26T06:50:12;15.37;;;3.20;;
7128;SDS011;3606;52.930;8.644;2023-03-26T06:52:37;9.00;;;2.70;;
7128;SDS011;3606;52.930;8.644;2023-03-26T06:55:03;13.53;;;3.00;;
7128;SDS011;3606;52.930;8.644;2023-03-26T06:57:30;9.27;;;2.93;;
7128;SDS011;3606;52.930;8.644;2023-03-26T06:59:56;9.97;;;3.20;;
7128;SDS011;3606;52.930;8.644;2023-03-26T07:02:22;13.13;;;3.60;;
7128;SDS011;3606;52.930;8.644;2023-03-26T07:04:47;12.10;;;3.20;;
7128;SDS011;3606;52.930;8.644;2023-03-26T07:07:13;14.53;;;3.67;;
7128;SDS011;3606;52.930;8.644;2023-03-26T07:09:39;10.30;;;3.00;;
7128;SDS011;3606;52.930;8.644;2023-03-26T07:12:04;9.50;;;2.97;;
7128;SDS011;3606;52.930;8.644;2023-03-26T07:14:30;16.33;;;3.40;;
7128;SDS011;3606;52.930;8.644;2023-03-26T07:16:57;15.00;;;3.07;;
7128;SDS011;3606;52.930;8.644;2023-03-26T07:19:23;13.80;;;3.57;;
7128;SDS011;3606;52.930;8.644;2023-03-26T07:21:48;10.40;;;3.23;;
7128;SDS011;3606;52.930;8.644;2023-03-26T07:24:15;13.97;;;3.83;;
7128;SDS011;3606;52.930;8.644;2023-03-26T07:29:25;15.63;;;3.07;;
7128;SDS011;3606;52.930;8.644;2023-03-26T07:32:01;12.00;;;3.30;;
7128;SDS011;3606;52.930;8.644;2023-03-26T07:34:50;12.23;;;3.17;;
7128;SDS011;3606;52.930;8.644;2023-03-26T07:37:26;12.97;;;3.90;;
7128;SDS011;3606;52.930;8.644;2023-03-26T07:40:06;12.17;;;3.67;;
7128;SDS011;3606;52.930;8.644;2023-03-26T07:42:44;13.73;;;3.70;;
7128;SDS011;3606;52.930;8.644;2023-03-26T07:45:23;14.80;;;3.30;;
7128;SDS011;3606;52.930;8.644;2023-03-26T07:47:57;14.77;;;3.00;;
7128;SDS011;3606;52.930;8.644;2023-03-26T07:50:24;9.13;;;3.00;;
7128;SDS011;3606;52.930;8.644;2023-03-26T07:52:50;10.40;;;3.30;;
7128;SDS011;3606;52.930;8.644;2023-03-26T07:55:16;13.60;;;2.80;;
7128;SDS011;3606;52.930;8.644;2023-03-26T08:00:13;11.93;;;3.40;;
7128;SDS011;3606;52.930;8.644;2023-03-26T08:03:04;15.27;;;3.93;;
7128;SDS011;3606;52.930;8.644;2023-03-26T08:08:22;7.33;;;2.50;;
7128;SDS011;3606;52.930;8.644;2023-03-26T08:19:49;14.90;;;3.00;;
7128;SDS011;3606;52.930;8.644;2023-03-26T08:22:20;17.43;;;3.83;;
7128;SDS011;3606;52.930;8.644;2023-03-26T08:30:08;13.97;;;3.30;;
7128;SDS011;3606;52.930;8.644;2023-03-26T08:32:35;8.20;;;3.00;;
7128;SDS011;3606;52.930;8.644;2023-03-26T08:35:01;9.53;;;2.63;;
7128;SDS011;3606;52.930;8.644;2023-03-26T08:37:28;16.77;;;3.10;;
7128;SDS011;3606;52.930;8.644;2023-03-26T08:39:53;14.10;;;3.17;;
7128;SDS011;3606;52.930;8.644;2023-03-26T08:45:27;16.03;;;2.87;;
7128;SDS011;3606;52.930;8.644;2023-03-26T08:56:42;12.03;;;3.00;;
7128;SDS011;3606;52.930;8.644;2023-03-26T09:16:48;11.23;;;2.83;;
7128;SDS011;3606;52.930;8.644;2023-03-26T09:27:12;11.33;;;2.93;;
7128;SDS011;3606;52.930;8.644;2023-03-26T09:33:21;12.63;;;3.23;;
7128;SDS011;3606;52.930;8.644;2023-03-26T09:36:06;5.83;;;2.40;;
7128;SDS011;3606;52.930;8.644;2023-03-26T09:38:39;6.73;;;2.83;;
7128;SDS011;3606;52.930;8.644;2023-03-26T09:41:42;11.70;;;2.87;;
7128;SDS011;3606;52.930;8.644;2023-03-26T10:00:31;5.73;;;3.00;;
7128;SDS011;3606;52.930;8.644;2023-03-26T10:11:38;7.87;;;2.73;;
7128;SDS011;3606;52.930;8.644;2023-03-26T10:25:23;9.53;;;3.07;;
7128;SDS011;3606;52.930;8.644;2023-03-26T10:42:42;6.33;;;2.63;;
7128;SDS011;3606;52.930;8.644;2023-03-26T10:55:53;7.07;;;2.30;;
7128;SDS011;3606;52.930;8.644;2023-03-26T10:58:27;8.73;;;2.47;;
7128;SDS011;3606;52.930;8.644;2023-03-26T11:00:54;10.93;;;2.60;;
7128;SDS011;3606;52.930;8.644;2023-03-26T11:03:35;6.47;;;2.20;;
7128;SDS011;3606;52.930;8.644;2023-03-26T11:06:23;6.87;;;2.37;;
7128;SDS011;3606;52.930;8.644;2023-03-26T11:09:02;7.23;;;2.27;;
7128;SDS011;3606;52.930;8.644;2023-03-26T11:11:45;4.67;;;2.27;;
7128;SDS011;3606;52.930;8.644;2023-03-26T11:19:51;7.07;;;2.43;;
7128;SDS011;3606;52.930;8.644;2023-03-26T11:30:26;7.30;;;2.70;;
7128;SDS011;3606;52.930;8.644;2023-03-26T11:33:01;7.47;;;2.77;;
7128;SDS011;3606;52.930;8.644;2023-03-26T11:35:32;7.77;;;2.90;;
7128;SDS011;3606;52.930;8.644;2023-03-26T11:38:03;8.70;;;2.67;;
7128;SDS011;3606;52.930;8.644;2023-03-26T11:40:51;7.90;;;2.70;;
7128;SDS011;3606;52.930;8.644;2023-03-26T11:43:21;6.27;;;2.70;;
7128;SDS011;3606;52.930;8.644;2023-03-26T11:45:50;9.57;;;2.57;;
7128;SDS011;3606;52.930;8.644;2023-03-26T11:48:31;7.50;;;2.47;;
7128;SDS011;3606;52.930;8.644;2023-03-26T11:51:07;11.50;;;2.70;;
7128;SDS011;3606;52.930;8.644;2023-03-26T11:53:38;8.90;;;2.73;;
7128;SDS011;3606;52.930;8.644;2023-03-26T12:01:17;10.70;;;3.43;;
7128;SDS011;3606;52.930;8.644;2023-03-26T12:06:30;9.57;;;2.80;;
7128;SDS011;3606;52.930;8.644;2023-03-26T12:08:57;7.27;;;2.60;;
7128;SDS011;3606;52.930;8.644;2023-03-26T12:11:24;9.27;;;3.10;;
7128;SDS011;3606;52.930;8.644;2023-03-26T12:14:02;5.30;;;2.80;;
7128;SDS011;3606;52.930;8.644;2023-03-26T12:16:28;8.37;;;2.90;;
7128;SDS011;3606;52.930;8.644;2023-03-26T12:21:25;8.93;;;2.40;;
7128;SDS011;3606;52.930;8.644;2023-03-26T12:23:58;8.47;;;2.60;;
7128;SDS011;3606;52.930;8.644;2023-03-26T12:26:30;12.03;;;2.93;;
7128;SDS011;3606;52.930;8.644;2023-03-26T12:29:03;15.23;;;3.07;;
7128;SDS011;3606;52.930;8.644;2023-03-26T12:31:44;7.50;;;3.00;;
7128;SDS011;3606;52.930;8.644;2023-03-26T12:34:29;9.93;;;2.87;;
7128;SDS011;3606;52.930;8.644;2023-03-26T12:37:01;10.77;;;2.80;;
7128;SDS011;3606;52.930;8.644;2023-03-26T12:41:58;9.13;;;2.83;;
7128;SDS011;3606;52.930;8.644;2023-03-26T12:47:11;6.90;;;2.77;;
7128;SDS011;3606;52.930;8.644;2023-03-26T12:49:47;8.60;;;3.10;;
7128;SDS011;3606;52.930;8.644;2023-03-26T12:55:16;7.87;;;2.77;;
7128;SDS011;3606;52.930;8.644;2023-03-26T13:00:41;8.27;;;2.43;;
7128;SDS011;3606;52.930;8.644;2023-03-26T13:06:39;9.80;;;2.70;;
7128;SDS011;3606;52.930;8.644;2023-03-26T13:09:30;9.90;;;2.87;;
7128;SDS011;3606;52.930;8.644;2023-03-26T13:25:53;6.33;;;2.50;;
7128;SDS011;3606;52.930;8.644;2023-03-26T13:28:43;9.73;;;2.80;;
7128;SDS011;3606;52.930;8.644;2023-03-26T13:33:59;7.97;;;2.67;;
7128;SDS011;3606;52.930;8.644;2023-03-26T13:47:27;8.00;;;2.93;;
7128;SDS011;3606;52.930;8.644;2023-03-26T13:52:49;11.67;;;3.23;;
7128;SDS011;3606;52.930;8.644;2023-03-26T13:55:32;4.10;;;2.33;;
7128;SDS011;3606;52.930;8.644;2023-03-26T14:05:59;9.57;;;2.30;;
7128;SDS011;3606;52.930;8.644;2023-03-26T14:08:41;7.77;;;2.50;;
7128;SDS011;3606;52.930;8.644;2023-03-26T14:11:15;4.73;;;2.50;;
7128;SDS011;3606;52.930;8.644;2023-03-26T14:14:05;7.17;;;2.60;;
7128;SDS011;3606;52.930;8.644;2023-03-26T14:16:43;6.97;;;2.40;;
7128;SDS011;3606;52.930;8.644;2023-03-26T14:22:02;8.40;;;2.80;;
7128;SDS011;3606;52.930;8.644;2023-03-26T14:27:50;7.30;;;2.67;;
7128;SDS011;3606;52.930;8.644;2023-03-26T14:41:52;6.70;;;2.43;;
7128;SDS011;3606;52.930;8.644;2023-03-26T14:47:48;4.27;;;2.13;;
7128;SDS011;3606;52.930;8.644;2023-03-26T14:51:02;7.40;;;2.50;;
7128;SDS011;3606;52.930;8.644;2023-03-26T14:53:34;7.57;;;2.30;;
7128;SDS011;3606;52.930;8.644;2023-03-26T15:07:36;9.73;;;2.23;;
7128;SDS011;3606;52.930;8.644;2023-03-26T15:35:37;10.40;;;2.67;;
7128;SDS011;3606;52.930;8.644;2023-03-26T15:43:25;6.27;;;2.23;;
7128;SDS011;3606;52.930;8.644;2023-03-26T15:51:36;8.40;;;2.53;;
7128;SDS011;3606;52.930;8.644;2023-03-26T16:02:55;8.67;;;2.27;;
7128;SDS011;3606;52.930;8.644;2023-03-26T16:10:58;7.80;;;2.87;;
7128;SDS011;3606;52.930;8.644;2023-03-26T16:18:33;12.33;;;3.03;;
7128;SDS011;3606;52.930;8.644;2023-03-26T16:29:13;10.03;;;2.97;;
7128;SDS011;3606;52.930;8.644;2023-03-26T16:37:46;10.10;;;2.47;;
7128;SDS011;3606;52.930;8.644;2023-03-26T17:05:05;5.17;;;2.07;;
7128;SDS011;3606;52.930;8.644;2023-03-26T17:13:10;10.07;;;2.20;;
7128;SDS011;3606;52.930;8.644;2023-03-26T17:15:55;12.50;;;3.20;;
7128;SDS011;3606;52.930;8.644;2023-03-26T17:18:26;8.63;;;2.33;;
7128;SDS011;3606;52.930;8.644;2023-03-26T17:21:03;13.30;;;2.63;;
7128;SDS011;3606;52.930;8.644;2023-03-26T17:26:30;8.20;;;3.80;;
7128;SDS011;3606;52.930;8.644;2023-03-26T17:44:40;7.33;;;1.93;;
7128;SDS011;3606;52.930;8.644;2023-03-26T17:47:38;9.47;;;1.90;;
7128;SDS011;3606;52.930;8.644;2023-03-26T17:50:13;5.70;;;2.00;;
7128;SDS011;3606;52.930;8.644;2023-03-26T17:52:56;4.30;;;2.03;;
7128;SDS011;3606;52.930;8.644;2023-03-26T17:55:26;7.60;;;2.50;;
7128;SDS011;3606;52.930;8.644;2023-03-26T18:03:51;9.67;;;2.53;;
7128;SDS011;3606;52.930;8.644;2023-03-26T18:17:31;7.93;;;2.33;;
7128;SDS011;3606;52.930;8.644;2023-03-26T18:20:05;7.23;;;2.10;;
7128;SDS011;3606;52.930;8.644;2023-03-26T18:22:33;8.07;;;2.17;;
7128;SDS011;3606;52.930;8.644;2023-03-26T18:24:59;7.67;;;2.40;;
7128;SDS011;3606;52.930;8.644;2023-03-26T18:27:35;10.43;;;2.03;;
7128;SDS011;3606;52.930;8.644;2023-03-26T18:30:17;11.03;;;3.33;;
7128;SDS011;3606;52.930;8.644;2023-03-26T18:38:08;12.20;;;2.63;;
7128;SDS011;3606;52.930;8.644;2023-03-26T18:40:40;4.07;;;2.30;;
7128;SDS011;3606;52.930;8.644;2023-03-26T18:43:15;10.43;;;2.57;;
7128;SDS011;3606;52.930;8.644;2023-03-26T18:45:42;8.43;;;2.40;;
7128;SDS011;3606;52.930;8.644;2023-03-26T18:50:35;5.93;;;2.30;;
7128;SDS011;3606;52.930;8.644;2023-03-26T18:53:04;10.83;;;2.67;;
7128;SDS011;3606;52.930;8.644;2023-03-26T18:55:33;5.73;;;2.20;;
7128;SDS011;3606;52.930;8.644;2023-03-26T18:58:09;8.23;;;2.57;;
7128;SDS011;3606;52.930;8.644;2023-03-26T19:00:53;5.40;;;2.40;;
7128;SDS011;3606;52.930;8.644;2023-03-26T19:03:24;5.70;;;2.93;;
7128;SDS011;3606;52.930;8.644;2023-03-26T19:05:52;4.50;;;2.47;;
7128;SDS011;3606;52.930;8.644;2023-03-26T19:08:20;4.07;;;2.20;;
7128;SDS011;3606;52.930;8.644;2023-03-26T19:10:47;7.77;;;1.93;;
7128;SDS011;3606;52.930;8.644;2023-03-26T19:13:15;8.43;;;2.40;;
7128;SDS011;3606;52.930;8.644;2023-03-26T19:15:44;4.93;;;2.13;;
7128;SDS011;3606;52.930;8.644;2023-03-26T19:18:14;8.23;;;2.63;;
7128;SDS011;3606;52.930;8.644;2023-03-26T19:20:47;11.47;;;2.37;;
7128;SDS011;3606;52.930;8.644;2023-03-26T19:23:16;4.93;;;1.83;;
7128;SDS011;3606;52.930;8.644;2023-03-26T19:28:17;11.17;;;2.60;;
7128;SDS011;3606;52.930;8.644;2023-03-26T19:30:51;10.17;;;2.57;;
7128;SDS011;3606;52.930;8.644;2023-03-26T19:33:41;6.90;;;2.20;;
7128;SDS011;3606;52.930;8.644;2023-03-26T19:36:18;6.13;;;2.13;;
7128;SDS011;3606;52.930;8.644;2023-03-26T19:41:31;6.90;;;2.13;;
7128;SDS011;3606;52.930;8.644;2023-03-26T19:44:00;6.10;;;2.17;;
7128;SDS011;3606;52.930;8.644;2023-03-26T19:46:42;10.67;;;2.60;;
7128;SDS011;3606;52.930;8.644;2023-03-26T19:55:03;4.93;;;1.90;;
7128;SDS011;3606;52.930;8.644;2023-03-26T19:57:36;15.13;;;2.50;;
7128;SDS011;3606;52.930;8.644;2023-03-26T20:00:05;5.17;;;2.40;;
7128;SDS011;3606;52.930;8.644;2023-03-26T20:02:37;4.87;;;1.90;;
7128;SDS011;3606;52.930;8.644;2023-03-26T20:05:03;6.53;;;2.43;;
7128;SDS011;3606;52.930;8.644;2023-03-26T20:07:29;9.27;;;2.37;;
7128;SDS011;3606;52.930;8.644;2023-03-26T20:09:55;11.17;;;2.20;;
7128;SDS011;3606;52.930;8.644;2023-03-26T20:12:21;4.23;;;2.37;;
7128;SDS011;3606;52.930;8.644;2023-03-26T20:14:46;5.10;;;1.87;;
7128;SDS011;3606;52.930;8.644;2023-03-26T20:17:13;3.70;;;2.13;;
7128;SDS011;3606;52.930;8.644;2023-03-26T20:19:41;5.17;;;2.00;;
7128;SDS011;3606;52.930;8.644;2023-03-26T20:22:17;5.97;;;1.80;;
7128;SDS011;3606;52.930;8.644;2023-03-26T20:24:47;10.20;;;2.53;;
7128;SDS011;3606;52.930;8.644;2023-03-26T20:27:14;5.57;;;1.90;;
7128;SDS011;3606;52.930;8.644;2023-03-26T20:29:40;8.67;;;2.20;;
7128;SDS011;3606;52.930;8.644;2023-03-26T20:32:19;3.97;;;1.93;;
7128;SDS011;3606;52.930;8.644;2023-03-26T20:34:47;14.30;;;2.47;;
7128;SDS011;3606;52.930;8.644;2023-03-26T20:37:13;3.33;;;1.90;;
7128;SDS011;3606;52.930;8.644;2023-03-26T20:39:39;9.73;;;2.13;;
7128;SDS011;3606;52.930;8.644;2023-03-26T20:42:05;12.47;;;2.27;;
7128;SDS011;3606;52.930;8.644;2023-03-26T20:44:31;12.70;;;2.40;;
7128;SDS011;3606;52.930;8.644;2023-03-26T20:46:57;8.70;;;2.37;;
7128;SDS011;3606;52.930;8.644;2023-03-26T20:49:23;6.53;;;1.97;;
7128;SDS011;3606;52.930;8.644;2023-03-26T20:51:49;7.57;;;2.50;;
7128;SDS011;3606;52.930;8.644;2023-03-26T20:54:15;6.10;;;1.97;;
7128;SDS011;3606;52.930;8.644;2023-03-26T20:56:43;8.10;;;2.40;;
7128;SDS011;3606;52.930;8.644;2023-03-26T20:59:09;4.43;;;2.13;;
7128;SDS011;3606;52.930;8.644;2023-03-26T21:01:37;5.67;;;2.13;;
7128;SDS011;3606;52.930;8.644;2023-03-26T21:04:03;5.43;;;2.13;;
7128;SDS011;3606;52.930;8.644;2023-03-26T21:06:29;7.33;;;2.57;;
7128;SDS011;3606;52.930;8.644;2023-03-26T21:08:55;7.77;;;2.40;;
7128;SDS011;3606;52.930;8.644;2023-03-26T21:13:52;6.27;;;2.70;;
7128;SDS011;3606;52.930;8.644;2023-03-26T21:16:27;6.60;;;2.40;;
7128;SDS011;3606;52.930;8.644;2023-03-26T21:18:53;4.67;;;2.07;;
7128;SDS011;3606;52.930;8.644;2023-03-26T21:29:32;6.90;;;1.60;;
7128;SDS011;3606;52.930;8.644;2023-03-26T21:31:58;6.37;;;2.00;;
7128;SDS011;3606;52.930;8.644;2023-03-26T21:34:24;7.20;;;2.20;;
7128;SDS011;3606;52.930;8.644;2023-03-26T21:36:51;7.83;;;2.20;;
7128;SDS011;3606;52.930;8.644;2023-03-26T21:39:17;4.57;;;1.90;;
7128;SDS011;3606;52.930;8.644;2023-03-26T21:41:46;6.40;;;2.00;;
7128;SDS011;3606;52.930;8.644;2023-03-26T21:44:13;6.53;;;2.30;;
7128;SDS011;3606;52.930;8.644;2023-03-26T21:46:41;4.80;;;2.20;;
7128;SDS011;3606;52.930;8.644;2023-03-26T21:49:07;7.30;;;1.70;;
7128;SDS011;3606;52.930;8.644;2023-03-26T21:51:34;4.50;;;2.10;;
7128;SDS011;3606;52.930;8.644;2023-03-26T21:53:59;12.43;;;2.53;;
7128;SDS011;3606;52.930;8.644;2023-03-26T21:59:22;7.50;;;2.30;;
7128;SDS011;3606;52.930;8.644;2023-03-26T22:02:01;5.67;;;1.97;;
7128;SDS011;3606;52.930;8.644;2023-03-26T22:05:14;7.10;;;2.27;;
7128;SDS011;3606;52.930;8.644;2023-03-26T22:07:53;8.17;;;2.10;;
7128;SDS011;3606;52.930;8.644;2023-03-26T22:10:20;10.00;;;2.23;;
7128;SDS011;3606;52.930;8.644;2023-03-26T22:12:47;7.13;;;2.10;;
7128;SDS011;3606;52.930;8.644;2023-03-26T22:15:13;6.17;;;1.93;;
7128;SDS011;3606;52.930;8.644;2023-03-26T22:17:39;8.50;;;2.00;;
7128;SDS011;3606;52.930;8.644;2023-03-26T22:20:07;2.73;;;1.70;;
7128;SDS011;3606;52.930;8.644;2023-03-26T22:22:33;5.63;;;2.00;;